sensor_id;sensor_type;location;lat;lon;timestamp;temperature;humidity
32107;DHT22;18622;51.998;10.440;2023-02-01T03:19:21;6.70;99.90
32107;DHT22;18622;51.998;10.440;2023-02-01T03:21:57;6.70;99.90
32107;DHT22;18622;51.998;10.440;2023-02-01T03:27:15;6.70;99.90
32107;DHT22;18622;51.998;10.440;2023-02-01T03:29:50;6.70;99.90
32107;DHT22;18622;51.998;10.440;2023-02-01T03:32:19;6.80;99.90
32107;DHT22;18622;51.998;10.440;2023-02-01T03:34:47;6.80;99.90
32107;DHT22;18622;51.998;10.440;2023-02-01T03:37:26;6.70;99.90
32107;DHT22;18622;51.998;10.440;2023-02-01T03:39:58;6.70;99.90
32107;DHT22;18622;51.998;10.440;2023-02-01T03:42:24;6.70;99.90
32107;DHT22;18622;51.998;10.440;2023-02-01T03:45:00;6.80;99.90
32107;DHT22;18622;51.998;10.440;2023-02-01T03:47:27;6.80;99.90
32107;DHT22;18622;51.998;10.440;2023-02-01T03:50:04;6.80;99.90
32107;DHT22;18622;51.998;10.440;2023-02-01T03:52:32;6.70;99.90
32107;DHT22;18622;51.998;10.440;2023-02-01T03:55:01;6.70;99.90
32107;DHT22;18622;51.998;10.440;2023-02-01T03:57:31;6.70;99.90
32107;DHT22;18622;51.998;10.440;2023-02-01T04:31:24;6.00;99.90
32107;DHT22;18622;51.998;10.440;2023-02-01T04:33:53;6.00;99.90
32107;DHT22;18622;51.998;10.440;2023-02-01T04:36:22;5.90;99.90
32107;DHT22;18622;51.998;10.440;2023-02-01T04:38:50;5.80;99.90
32107;DHT22;18622;51.998;10.440;2023-02-01T04:41:19;5.80;99.90
32107;DHT22;18622;51.998;10.440;2023-02-01T04:43:47;5.80;99.90
32107;DHT22;18622;51.998;10.440;2023-02-01T04:46:15;5.80;99.90
32107;DHT22;18622;51.998;10.440;2023-02-01T04:48:43;5.80;99.90
32107;DHT22;18622;51.998;10.440;2023-02-01T04:51:11;5.90;99.90
32107;DHT22;18622;51.998;10.440;2023-02-01T04:53:39;5.90;99.90
32107;DHT22;18622;51.998;10.440;2023-02-01T04:56:07;5.90;99.90
32107;DHT22;18622;51.998;10.440;2023-02-01T04:58:35;6.00;99.90
32107;DHT22;18622;51.998;10.440;2023-02-01T05:01:04;6.00;99.90
32107;DHT22;18622;51.998;10.440;2023-02-01T05:03:33;6.00;99.90
32107;DHT22;18622;51.998;10.440;2023-02-01T05:06:01;6.10;99.90
32107;DHT22;18622;51.998;10.440;2023-02-01T05:08:31;6.10;99.90
32107;DHT22;18622;51.998;10.440;2023-02-01T05:10:59;6.20;99.90
32107;DHT22;18622;51.998;10.440;2023-02-01T05:13:29;6.20;99.90
32107;DHT22;18622;51.998;10.440;2023-02-01T05:16:15;6.20;99.90
32107;DHT22;18622;51.998;10.440;2023-02-01T05:18:42;6.30;99.90
32107;DHT22;18622;51.998;10.440;2023-02-01T05:21:10;6.30;99.90
32107;DHT22;18622;51.998;10.440;2023-02-01T05:23:38;6.40;99.90
32107;DHT22;18622;51.998;10.440;2023-02-01T05:26:24;6.40;99.90
32107;DHT22;18622;51.998;10.440;2023-02-01T05:28:52;6.40;99.90
32107;DHT22;18622;51.998;10.440;2023-02-01T05:31:19;6.40;99.90
32107;DHT22;18622;51.998;10.440;2023-02-01T05:33:47;6.50;99.90
32107;DHT22;18622;51.998;10.440;2023-02-01T05:36:16;6.50;99.90
32107;DHT22;18622;51.998;10.440;2023-02-01T05:38:43;6.50;99.90
32107;DHT22;18622;51.998;10.440;2023-02-01T05:41:11;6.50;99.90
32107;DHT22;18622;51.998;10.440;2023-02-01T05:43:39;6.40;99.90
32107;DHT22;18622;51.998;10.440;2023-02-01T05:46:07;6.30;99.90
32107;DHT22;18622;51.998;10.440;2023-02-01T05:48:36;6.20;99.90
32107;DHT22;18622;51.998;10.440;2023-02-01T05:51:04;6.10;99.90
32107;DHT22;18622;51.998;10.440;2023-02-01T05:53:32;6.10;99.90
32107;DHT22;18622;51.998;10.440;2023-02-01T05:56:00;6.00;99.90
32107;DHT22;18622;51.998;10.440;2023-02-01T05:58:28;6.00;99.90
32107;DHT22;18622;51.998;10.440;2023-02-01T06:00:58;5.90;99.90
32107;DHT22;18622;51.998;10.440;2023-02-01T06:03:25;5.80;99.90
32107;DHT22;18622;51.998;10.440;2023-02-01T06:05:53;5.80;99.90
32107;DHT22;18622;51.998;10.440;2023-02-01T06:08:21;5.80;99.90
32107;DHT22;18622;51.998;10.440;2023-02-01T06:10:50;5.70;99.90
32107;DHT22;18622;51.998;10.440;2023-02-01T06:13:18;5.70;99.90
32107;DHT22;18622;51.998;10.440;2023-02-01T06:15:46;5.70;99.90
32107;DHT22;18622;51.998;10.440;2023-02-01T06:18:14;5.80;99.90
32107;DHT22;18622;51.998;10.440;2023-02-01T06:20:42;5.70;99.90
32107;DHT22;18622;51.998;10.440;2023-02-01T06:23:10;5.70;99.90
32107;DHT22;18622;51.998;10.440;2023-02-01T06:25:37;5.70;99.90
32107;DHT22;18622;51.998;10.440;2023-02-01T06:28:05;5.80;99.90
32107;DHT22;18622;51.998;10.440;2023-02-01T10:02:42;7.50;99.90
32107;DHT22;18622;51.998;10.440;2023-02-01T10:05:15;7.40;99.90
32107;DHT22;18622;51.998;10.440;2023-02-01T10:08:00;7.50;99.90
32107;DHT22;18622;51.998;10.440;2023-02-01T10:10:39;7.60;99.90
32107;DHT22;18622;51.998;10.440;2023-02-01T10:15:52;7.90;99.90
32107;DHT22;18622;51.998;10.440;2023-02-01T10:18:29;8.00;99.90
32107;DHT22;18622;51.998;10.440;2023-02-01T10:24:05;8.20;99.90
32107;DHT22;18622;51.998;10.440;2023-02-01T10:26:33;8.30;99.90
32107;DHT22;18622;51.998;10.440;2023-02-01T10:29:05;8.40;99.90
32107;DHT22;18622;51.998;10.440;2023-02-01T10:31:35;8.50;99.90
32107;DHT22;18622;51.998;10.440;2023-02-01T10:34:26;8.70;99.90
32107;DHT22;18622;51.998;10.440;2023-02-01T10:36:58;8.90;99.60
32107;DHT22;18622;51.998;10.440;2023-02-01T10:39:26;9.00;99.60
32107;DHT22;18622;51.998;10.440;2023-02-01T10:41:55;9.00;99.30
32107;DHT22;18622;51.998;10.440;2023-02-01T10:44:28;9.10;98.00
32107;DHT22;18622;51.998;10.440;2023-02-01T10:46:56;9.20;98.60
32107;DHT22;18622;51.998;10.440;2023-02-01T10:49:37;9.10;98.10
32107;DHT22;18622;51.998;10.440;2023-02-01T10:52:20;9.20;97.60
32107;DHT22;18622;51.998;10.440;2023-02-01T10:54:46;9.20;97.60
32107;DHT22;18622;51.998;10.440;2023-02-01T10:57:23;9.10;97.50
32107;DHT22;18622;51.998;10.440;2023-02-01T10:59:53;9.20;97.90
32107;DHT22;18622;51.998;10.440;2023-02-01T11:02:26;9.20;96.60
32107;DHT22;18622;51.998;10.440;2023-02-01T11:05:05;9.30;96.50
32107;DHT22;18622;51.998;10.440;2023-02-01T11:07:36;9.50;96.50
32107;DHT22;18622;51.998;10.440;2023-02-01T11:10:05;9.60;96.00
32107;DHT22;18622;51.998;10.440;2023-02-01T11:12:35;9.80;95.30
32107;DHT22;18622;51.998;10.440;2023-02-01T11:17:45;9.90;94.10
32107;DHT22;18622;51.998;10.440;2023-02-01T11:20:16;9.80;93.70
32107;DHT22;18622;51.998;10.440;2023-02-01T11:22:52;9.60;94.50
32107;DHT22;18622;51.998;10.440;2023-02-01T11:25:18;9.50;94.00
32107;DHT22;18622;51.998;10.440;2023-02-01T11:27:45;9.40;93.80
32107;DHT22;18622;51.998;10.440;2023-02-01T11:30:30;9.30;94.30
32107;DHT22;18622;51.998;10.440;2023-02-01T11:32:46;9.10;94.30
32107;DHT22;18622;51.998;10.440;2023-02-01T11:35:17;9.10;94.40
32107;DHT22;18622;51.998;10.440;2023-02-01T11:37:57;9.00;94.50
32107;DHT22;18622;51.998;10.440;2023-02-01T11:40:35;9.00;94.50
32107;DHT22;18622;51.998;10.440;2023-02-01T11:46:01;8.90;94.70
32107;DHT22;18622;51.998;10.440;2023-02-01T11:48:33;8.90;94.50
32107;DHT22;18622;51.998;10.440;2023-02-01T11:51:18;8.90;94.70
32107;DHT22;18622;51.998;10.440;2023-02-01T11:54:04;8.80;94.50
32107;DHT22;18622;51.998;10.440;2023-02-01T11:56:39;8.80;94.80
32107;DHT22;18622;51.998;10.440;2023-02-01T11:59:30;8.70;94.80
32107;DHT22;18622;51.998;10.440;2023-02-01T16:06:49;4.00;99.90
32107;DHT22;18622;51.998;10.440;2023-02-01T16:09:25;4.00;99.90
32107;DHT22;18622;51.998;10.440;2023-02-01T16:11:54;4.00;99.90
32107;DHT22;18622;51.998;10.440;2023-02-01T16:14:22;4.00;99.90
32107;DHT22;18622;51.998;10.440;2023-02-01T16:16:52;4.00;99.90
32107;DHT22;18622;51.998;10.440;2023-02-01T16:19:20;3.90;99.90
32107;DHT22;18622;51.998;10.440;2023-02-01T16:21:49;3.90;99.90
32107;DHT22;18622;51.998;10.440;2023-02-01T16:24:17;3.90;99.90
32107;DHT22;18622;51.998;10.440;2023-02-01T16:26:45;3.90;99.90
32107;DHT22;18622;51.998;10.440;2023-02-01T16:29:12;3.90;99.90
32107;DHT22;18622;51.998;10.440;2023-02-01T16:31:41;4.00;99.90
32107;DHT22;18622;51.998;10.440;2023-02-01T16:34:16;4.00;99.90
32107;DHT22;18622;51.998;10.440;2023-02-01T16:36:40;4.00;99.90
32107;DHT22;18622;51.998;10.440;2023-02-01T16:39:12;4.00;99.90
32107;DHT22;18622;51.998;10.440;2023-02-01T16:41:40;4.00;99.90
32107;DHT22;18622;51.998;10.440;2023-02-01T16:44:08;4.10;99.90
32107;DHT22;18622;51.998;10.440;2023-02-01T16:46:40;4.20;99.90
32107;DHT22;18622;51.998;10.440;2023-02-01T16:49:18;4.20;99.90
32107;DHT22;18622;51.998;10.440;2023-02-01T16:51:48;4.20;99.90
32107;DHT22;18622;51.998;10.440;2023-02-01T16:54:16;4.30;99.90
32107;DHT22;18622;51.998;10.440;2023-02-01T16:56:44;4.30;99.90
32107;DHT22;18622;51.998;10.440;2023-02-01T16:59:13;4.30;99.90
32107;DHT22;18622;51.998;10.440;2023-02-01T17:01:43;4.30;99.90
32107;DHT22;18622;51.998;10.440;2023-02-01T17:04:11;4.30;99.90
32107;DHT22;18622;51.998;10.440;2023-02-01T17:06:38;4.30;99.90
32107;DHT22;18622;51.998;10.440;2023-02-01T17:09:08;4.30;99.90
32107;DHT22;18622;51.998;10.440;2023-02-01T17:11:36;4.30;99.90
32107;DHT22;18622;51.998;10.440;2023-02-01T17:14:18;4.40;99.90
32107;DHT22;18622;51.998;10.440;2023-02-01T17:16:48;4.40;99.90
32107;DHT22;18622;51.998;10.440;2023-02-01T17:19:19;4.40;99.90
32107;DHT22;18622;51.998;10.440;2023-02-01T17:21:50;4.40;99.90
32107;DHT22;18622;51.998;10.440;2023-02-01T17:24:23;4.50;99.90
32107;DHT22;18622;51.998;10.440;2023-02-01T17:26:50;4.40;99.90
32107;DHT22;18622;51.998;10.440;2023-02-01T17:29:18;4.40;99.90
32107;DHT22;18622;51.998;10.440;2023-02-01T17:31:49;4.30;99.90
32107;DHT22;18622;51.998;10.440;2023-02-01T17:34:17;4.30;99.90
32107;DHT22;18622;51.998;10.440;2023-02-01T17:36:46;4.40;99.90
32107;DHT22;18622;51.998;10.440;2023-02-01T17:39:15;4.40;99.90
32107;DHT22;18622;51.998;10.440;2023-02-01T17:42:03;4.70;99.90
32107;DHT22;18622;51.998;10.440;2023-02-01T17:44:31;4.70;99.90
32107;DHT22;18622;51.998;10.440;2023-02-01T17:46:58;4.70;99.90
32107;DHT22;18622;51.998;10.440;2023-02-01T17:49:26;4.70;99.90
32107;DHT22;18622;51.998;10.440;2023-02-01T17:51:57;4.60;99.90
32107;DHT22;18622;51.998;10.440;2023-02-01T17:54:24;4.50;99.90
32107;DHT22;18622;51.998;10.440;2023-02-01T17:56:52;4.50;99.90
32107;DHT22;18622;51.998;10.440;2023-02-01T17:59:20;4.60;99.90
32107;DHT22;18622;51.998;10.440;2023-02-01T18:01:48;4.60;99.90
32107;DHT22;18622;51.998;10.440;2023-02-01T18:04:18;4.60;99.90
32107;DHT22;18622;51.998;10.440;2023-02-01T18:06:47;4.60;99.90
32107;DHT22;18622;51.998;10.440;2023-02-01T18:09:14;4.60;99.90
32107;DHT22;18622;51.998;10.440;2023-02-01T18:11:42;4.60;99.90
32107;DHT22;18622;51.998;10.440;2023-02-01T18:14:12;4.60;99.90
32107;DHT22;18622;51.998;10.440;2023-02-01T18:16:40;4.60;99.90
32107;DHT22;18622;51.998;10.440;2023-02-01T18:19:07;4.70;99.90
32107;DHT22;18622;51.998;10.440;2023-02-01T18:21:40;4.70;99.90
32107;DHT22;18622;51.998;10.440;2023-02-01T18:24:15;4.80;99.90
32107;DHT22;18622;51.998;10.440;2023-02-01T18:26:44;4.80;99.90
32107;DHT22;18622;51.998;10.440;2023-02-01T18:29:12;4.80;99.90
32107;DHT22;18622;51.998;10.440;2023-02-01T18:31:47;4.90;99.90
32107;DHT22;18622;51.998;10.440;2023-02-01T18:34:18;4.90;99.90
32107;DHT22;18622;51.998;10.440;2023-02-01T18:36:50;4.90;99.90
32107;DHT22;18622;51.998;10.440;2023-02-01T18:39:18;4.90;99.90
32107;DHT22;18622;51.998;10.440;2023-02-01T18:41:48;4.80;99.90
32107;DHT22;18622;51.998;10.440;2023-02-01T18:44:17;4.80;99.90
32107;DHT22;18622;51.998;10.440;2023-02-01T18:46:45;4.80;99.90
32107;DHT22;18622;51.998;10.440;2023-02-01T18:49:12;4.90;99.90
32107;DHT22;18622;51.998;10.440;2023-02-01T18:51:42;5.00;99.90
32107;DHT22;18622;51.998;10.440;2023-02-01T18:54:10;5.10;99.90
32107;DHT22;18622;51.998;10.440;2023-02-01T18:56:38;5.20;99.90
32107;DHT22;18622;51.998;10.440;2023-02-01T18:59:06;5.30;99.90
32107;DHT22;18622;51.998;10.440;2023-02-01T19:01:34;5.30;99.90
32107;DHT22;18622;51.998;10.440;2023-02-01T19:04:02;5.30;99.90
32107;DHT22;18622;51.998;10.440;2023-02-01T19:06:30;5.30;99.90
32107;DHT22;18622;51.998;10.440;2023-02-01T19:08:58;5.40;99.90
32107;DHT22;18622;51.998;10.440;2023-02-01T19:11:26;5.40;99.90
32107;DHT22;18622;51.998;10.440;2023-02-01T19:13:53;5.40;99.90
32107;DHT22;18622;51.998;10.440;2023-02-01T19:16:21;5.40;99.90
32107;DHT22;18622;51.998;10.440;2023-02-01T19:18:52;5.40;99.90
32107;DHT22;18622;51.998;10.440;2023-02-01T19:21:20;5.50;99.90
32107;DHT22;18622;51.998;10.440;2023-02-01T19:23:47;5.60;99.90
32107;DHT22;18622;51.998;10.440;2023-02-01T19:26:16;5.60;99.90
32107;DHT22;18622;51.998;10.440;2023-02-01T19:28:44;5.70;99.90
32107;DHT22;18622;51.998;10.440;2023-02-01T19:31:15;5.90;99.90
32107;DHT22;18622;51.998;10.440;2023-02-01T19:33:43;5.90;99.90
32107;DHT22;18622;51.998;10.440;2023-02-01T19:36:11;5.90;99.90
32107;DHT22;18622;51.998;10.440;2023-02-01T19:38:39;6.00;99.90
32107;DHT22;18622;51.998;10.440;2023-02-01T19:41:07;6.00;99.90
32107;DHT22;18622;51.998;10.440;2023-02-01T19:43:35;6.00;99.90
32107;DHT22;18622;51.998;10.440;2023-02-01T19:46:04;6.10;99.90
32107;DHT22;18622;51.998;10.440;2023-02-01T19:48:32;6.10;99.90
32107;DHT22;18622;51.998;10.440;2023-02-01T19:51:00;6.20;99.90
32107;DHT22;18622;51.998;10.440;2023-02-01T19:53:30;6.30;99.90
32107;DHT22;18622;51.998;10.440;2023-02-01T19:55:58;6.30;99.90
32107;DHT22;18622;51.998;10.440;2023-02-01T19:58:27;6.30;99.90
32107;DHT22;18622;51.998;10.440;2023-02-01T20:00:56;6.30;99.90
32107;DHT22;18622;51.998;10.440;2023-02-01T20:03:24;6.30;99.90
32107;DHT22;18622;51.998;10.440;2023-02-01T20:05:53;6.30;99.90
32107;DHT22;18622;51.998;10.440;2023-02-01T20:08:20;6.40;99.90
32107;DHT22;18622;51.998;10.440;2023-02-01T20:10:48;6.40;99.90
32107;DHT22;18622;51.998;10.440;2023-02-01T20:13:17;6.40;99.90
32107;DHT22;18622;51.998;10.440;2023-02-01T20:15:45;6.40;99.90
32107;DHT22;18622;51.998;10.440;2023-02-01T20:18:13;6.40;99.90
32107;DHT22;18622;51.998;10.440;2023-02-01T20:20:41;6.30;99.90
32107;DHT22;18622;51.998;10.440;2023-02-01T20:23:09;6.20;99.90
32107;DHT22;18622;51.998;10.440;2023-02-01T20:25:37;6.20;99.90
32107;DHT22;18622;51.998;10.440;2023-02-01T20:28:05;6.20;99.90
32107;DHT22;18622;51.998;10.440;2023-02-01T20:30:33;6.20;99.90
32107;DHT22;18622;51.998;10.440;2023-02-01T20:33:00;6.20;99.90
32107;DHT22;18622;51.998;10.440;2023-02-01T20:35:28;6.10;99.90
32107;DHT22;18622;51.998;10.440;2023-02-01T20:37:56;6.20;99.90
32107;DHT22;18622;51.998;10.440;2023-02-01T20:40:24;6.20;99.90
32107;DHT22;18622;51.998;10.440;2023-02-01T20:42:52;6.10;99.90
32107;DHT22;18622;51.998;10.440;2023-02-01T20:45:20;6.10;99.90
32107;DHT22;18622;51.998;10.440;2023-02-01T20:47:51;6.00;99.90
32107;DHT22;18622;51.998;10.440;2023-02-01T20:50:20;6.10;99.90
32107;DHT22;18622;51.998;10.440;2023-02-01T20:52:47;6.00;99.90
32107;DHT22;18622;51.998;10.440;2023-02-01T20:55:15;5.90;99.90
32107;DHT22;18622;51.998;10.440;2023-02-01T20:57:43;6.00;99.90
32107;DHT22;18622;51.998;10.440;2023-02-01T21:00:11;5.90;99.90
32107;DHT22;18622;51.998;10.440;2023-02-01T21:02:39;5.90;99.90
32107;DHT22;18622;51.998;10.440;2023-02-01T21:05:07;5.90;99.90
32107;DHT22;18622;51.998;10.440;2023-02-01T21:07:36;6.00;99.90
32107;DHT22;18622;51.998;10.440;2023-02-01T21:10:04;6.10;99.90
32107;DHT22;18622;51.998;10.440;2023-02-01T21:12:32;6.10;99.90
32107;DHT22;18622;51.998;10.440;2023-02-01T21:15:00;6.10;99.90
32107;DHT22;18622;51.998;10.440;2023-02-01T21:17:30;6.10;99.90
32107;DHT22;18622;51.998;10.440;2023-02-01T21:19:58;6.20;99.90
32107;DHT22;18622;51.998;10.440;2023-02-01T21:22:26;6.20;99.90
32107;DHT22;18622;51.998;10.440;2023-02-01T21:24:54;6.30;99.90
32107;DHT22;18622;51.998;10.440;2023-02-01T21:27:22;6.20;99.90
32107;DHT22;18622;51.998;10.440;2023-02-01T21:29:50;6.30;99.90
32107;DHT22;18622;51.998;10.440;2023-02-01T21:32:18;6.30;99.90
32107;DHT22;18622;51.998;10.440;2023-02-01T21:34:45;6.30;99.90
32107;DHT22;18622;51.998;10.440;2023-02-01T21:37:13;6.30;99.90
32107;DHT22;18622;51.998;10.440;2023-02-01T21:39:41;6.30;99.90
32107;DHT22;18622;51.998;10.440;2023-02-01T21:42:10;6.40;99.90
32107;DHT22;18622;51.998;10.440;2023-02-01T21:44:41;6.40;99.90
32107;DHT22;18622;51.998;10.440;2023-02-01T21:47:11;6.50;99.90
32107;DHT22;18622;51.998;10.440;2023-02-01T21:49:39;6.50;99.90
32107;DHT22;18622;51.998;10.440;2023-02-01T21:52:07;6.60;99.90
32107;DHT22;18622;51.998;10.440;2023-02-01T21:54:35;6.60;99.90
32107;DHT22;18622;51.998;10.440;2023-02-01T21:57:05;6.50;99.90
32107;DHT22;18622;51.998;10.440;2023-02-01T21:59:38;6.60;99.90
